createdAt,value
2019-01-20T00:00:14.939Z,33.53
2019-01-20T00:02:43.624Z,38.47
2019-01-20T00:05:13.841Z,40.70
2019-01-20T00:07:42.490Z,43.57
2019-01-20T00:10:14.777Z,48.90
2019-01-20T00:12:43.493Z,38.83
2019-01-20T00:15:17.416Z,42.80
2019-01-20T00:17:46.135Z,40.77
2019-01-20T00:20:14.926Z,39.97
2019-01-20T00:22:43.757Z,39.90
2019-01-20T00:25:12.727Z,38.70
2019-01-20T00:27:41.590Z,38.63
2019-01-20T00:30:15.682Z,41.83
2019-01-20T00:32:44.395Z,42.10
2019-01-20T00:35:13.056Z,45.90
2019-01-20T00:37:41.675Z,49.50
2019-01-20T00:40:13.298Z,42.63
2019-01-20T00:42:41.934Z,41.00
2019-01-20T00:45:13.534Z,48.03
2019-01-20T00:47:42.223Z,36.93
2019-01-20T00:50:12.752Z,40.67
2019-01-20T00:52:41.490Z,36.23
2019-01-20T00:55:13.015Z,43.90
2019-01-20T00:57:42.188Z,37.90
2019-01-20T01:00:23.474Z,40.67
2019-01-20T01:02:52.241Z,44.60
2019-01-20T01:05:21.682Z,38.60
2019-01-20T01:07:50.557Z,40.90
2019-01-20T01:10:19.214Z,40.93
2019-01-20T01:12:48.957Z,35.57
2019-01-20T01:15:17.609Z,47.53
2019-01-20T01:17:46.232Z,45.80
2019-01-20T01:20:17.063Z,38.57
2019-01-20T01:22:48.719Z,42.53
2019-01-20T01:25:18.065Z,46.00
2019-01-20T01:27:46.840Z,40.13
2019-01-20T01:30:18.724Z,38.73
2019-01-20T01:32:47.507Z,33.73
2019-01-20T01:35:16.191Z,37.73
2019-01-20T01:37:44.787Z,39.10
2019-01-20T01:40:15.609Z,34.07
2019-01-20T01:42:47.079Z,36.13
2019-01-20T01:45:20.141Z,40.37
2019-01-20T01:47:48.920Z,34.47
2019-01-20T01:50:18.061Z,33.00
2019-01-20T01:52:46.758Z,36.00
2019-01-20T01:55:15.672Z,39.53
2019-01-20T01:57:44.417Z,35.83
2019-01-20T02:00:15.805Z,32.77
2019-01-20T02:02:44.495Z,35.60
2019-01-20T02:05:13.223Z,32.17
2019-01-20T02:07:42.003Z,36.67
2019-01-20T02:10:16.300Z,33.60
2019-01-20T02:12:45.035Z,34.20
2019-01-20T02:15:19.102Z,36.57
2019-01-20T02:17:48.164Z,36.20
2019-01-20T02:20:22.390Z,37.80
2019-01-20T02:22:51.244Z,34.80
2019-01-20T02:25:19.943Z,38.73
2019-01-20T02:27:49.022Z,38.13
2019-01-20T02:30:23.483Z,35.27
2019-01-20T02:32:52.190Z,32.93
2019-01-20T02:35:20.841Z,32.60
2019-01-20T02:37:49.556Z,37.83
2019-01-20T02:40:18.405Z,33.17
2019-01-20T02:42:47.114Z,39.30
2019-01-20T02:45:17.018Z,37.00
2019-01-20T02:47:45.657Z,39.73
2019-01-20T02:50:16.270Z,32.10
2019-01-20T02:52:44.945Z,32.70
2019-01-20T02:55:13.605Z,32.00
2019-01-20T02:57:42.340Z,29.70
2019-01-20T03:00:14.233Z,34.50
2019-01-20T03:02:42.860Z,37.67
2019-01-20T03:05:11.811Z,35.87
2019-01-20T03:07:40.522Z,32.83
2019-01-20T03:10:11.851Z,40.20
2019-01-20T03:12:40.472Z,34.83
2019-01-20T03:15:11.696Z,37.00
2019-01-20T03:17:40.399Z,37.37
2019-01-20T03:20:14.775Z,33.70
2019-01-20T03:22:43.390Z,34.90
2019-01-20T03:25:14.214Z,33.50
2019-01-20T03:27:42.884Z,34.43
2019-01-20T03:30:17.230Z,35.60
2019-01-20T03:32:46.054Z,34.40
2019-01-20T03:35:16.147Z,31.30
2019-01-20T03:37:44.824Z,34.37
2019-01-20T03:40:16.336Z,31.50
2019-01-20T03:42:44.985Z,33.83
2019-01-20T03:45:16.007Z,32.43
2019-01-20T03:47:44.713Z,35.27
2019-01-20T03:50:15.442Z,31.73
2019-01-20T03:52:44.150Z,35.17
2019-01-20T03:55:15.241Z,36.57
2019-01-20T03:57:43.861Z,32.00
2019-01-20T04:00:22.832Z,42.13
2019-01-20T04:02:54.035Z,39.30
2019-01-20T04:05:22.594Z,34.23
2019-01-20T04:07:53.021Z,36.57
2019-01-20T04:10:21.749Z,33.07
2019-01-20T04:12:50.327Z,33.93
2019-01-20T04:15:18.968Z,33.90
2019-01-20T04:17:47.580Z,33.90
2019-01-20T04:20:16.342Z,35.17
2019-01-20T04:22:45.030Z,35.77
2019-01-20T04:25:19.319Z,37.93
2019-01-20T04:27:47.951Z,41.37
2019-01-20T04:30:19.189Z,36.40
2019-01-20T04:32:48.276Z,38.40
2019-01-20T04:35:17.110Z,38.83
2019-01-20T04:37:45.693Z,36.03
2019-01-20T04:40:19.483Z,37.33
2019-01-20T04:42:48.177Z,38.87
2019-01-20T04:45:16.828Z,41.17
2019-01-20T04:47:45.548Z,39.60
2019-01-20T04:50:21.960Z,43.57
2019-01-20T04:52:50.582Z,36.40
2019-01-20T04:55:19.721Z,40.53
2019-01-20T04:57:49.942Z,36.47
2019-01-20T05:00:21.238Z,34.67
2019-01-20T05:02:49.871Z,32.13
2019-01-20T05:05:18.891Z,39.80
2019-01-20T05:07:48.557Z,36.30
2019-01-20T05:10:18.616Z,35.33
2019-01-20T05:12:47.264Z,41.73
2019-01-20T05:15:18.288Z,36.33
2019-01-20T05:17:47.056Z,38.67
2019-01-20T05:20:17.285Z,41.17
2019-01-20T05:22:45.966Z,34.57
2019-01-20T05:25:14.911Z,44.80
2019-01-20T05:27:43.540Z,39.23
2019-01-20T05:30:15.307Z,40.70
2019-01-20T05:32:43.945Z,35.17
2019-01-20T05:35:12.671Z,35.20
2019-01-20T05:37:41.293Z,38.77
2019-01-20T05:40:17.234Z,35.40
2019-01-20T05:42:46.712Z,39.93
2019-01-20T05:45:17.647Z,41.47
2019-01-20T05:47:46.397Z,37.40
2019-01-20T05:50:16.001Z,48.40
2019-01-20T05:52:44.670Z,39.40
2019-01-20T05:55:14.696Z,40.87
2019-01-20T05:57:43.407Z,41.67
2019-01-20T06:00:14.846Z,39.30
2019-01-20T06:02:43.490Z,47.17
2019-01-20T06:05:12.143Z,41.83
2019-01-20T06:07:40.791Z,39.93
2019-01-20T06:10:12.103Z,39.63
2019-01-20T06:12:40.766Z,41.93
2019-01-20T06:15:12.839Z,40.17
2019-01-20T06:17:41.444Z,43.23
2019-01-20T06:20:10.548Z,42.33
2019-01-20T06:22:39.304Z,41.77
2019-01-20T06:25:09.012Z,41.80
2019-01-20T06:27:37.664Z,43.53
2019-01-20T06:30:21.329Z,42.10
2019-01-20T06:32:49.939Z,45.73
2019-01-20T06:35:18.514Z,39.97
2019-01-20T06:37:47.230Z,46.70
2019-01-20T06:40:16.136Z,44.23
2019-01-20T06:42:44.893Z,40.07
2019-01-20T06:45:14.942Z,44.43
2019-01-20T06:47:43.627Z,40.00
2019-01-20T06:50:17.424Z,42.17
2019-01-20T06:52:46.051Z,44.47
2019-01-20T06:55:15.202Z,43.43
2019-01-20T06:57:43.890Z,42.87
2019-01-20T07:00:18.924Z,40.40
2019-01-20T07:02:47.639Z,44.40
2019-01-20T07:05:16.291Z,43.67
2019-01-20T07:07:44.992Z,49.97
2019-01-20T07:10:16.127Z,40.90
2019-01-20T07:12:44.746Z,41.10
2019-01-20T07:15:18.624Z,49.93
2019-01-20T07:17:47.209Z,45.43
2019-01-20T07:20:16.165Z,41.57
2019-01-20T07:22:44.798Z,47.60
2019-01-20T07:25:13.462Z,45.87
2019-01-20T07:27:42.092Z,43.07
2019-01-20T07:30:13.820Z,53.00
2019-01-20T07:32:42.459Z,48.30
2019-01-20T07:35:11.275Z,50.57
2019-01-20T07:37:39.982Z,41.10
2019-01-20T07:40:17.151Z,51.73
2019-01-20T07:42:45.858Z,49.93
2019-01-20T07:45:16.194Z,53.27
2019-01-20T07:47:44.854Z,48.40
2019-01-20T07:50:18.672Z,41.20
2019-01-20T07:52:47.369Z,45.73
2019-01-20T07:55:16.088Z,51.23
2019-01-20T07:57:45.098Z,49.20
2019-01-20T08:00:16.290Z,48.73
2019-01-20T08:02:44.903Z,47.43
2019-01-20T08:05:13.935Z,43.60
2019-01-20T08:07:42.587Z,56.17
2019-01-20T08:10:16.768Z,47.47
2019-01-20T08:12:45.428Z,47.40
2019-01-20T08:15:15.354Z,48.20
2019-01-20T08:17:44.058Z,56.73
2019-01-20T08:20:15.754Z,56.50
2019-01-20T08:22:44.704Z,51.43
2019-01-20T08:25:15.227Z,57.03
2019-01-20T08:27:43.947Z,56.13
2019-01-20T08:30:18.023Z,61.37
2019-01-20T08:32:46.721Z,57.77
2019-01-20T08:35:15.745Z,60.00
2019-01-20T08:37:44.445Z,55.53
2019-01-20T08:40:18.785Z,52.37
2019-01-20T08:42:47.415Z,65.10
2019-01-20T08:45:21.931Z,63.70
2019-01-20T08:47:52.657Z,57.27
2019-01-20T08:50:21.245Z,50.43
2019-01-20T08:52:49.915Z,58.43
2019-01-20T08:55:18.504Z,58.33
2019-01-20T08:57:47.098Z,59.97
2019-01-20T09:00:16.839Z,59.00
2019-01-20T09:02:45.515Z,57.43
2019-01-20T09:05:14.443Z,68.90
2019-01-20T09:07:43.177Z,56.50
2019-01-20T09:10:21.113Z,61.80
2019-01-20T09:12:50.100Z,59.63
2019-01-20T09:15:18.743Z,53.90
2019-01-20T09:17:47.482Z,64.93
2019-01-20T09:20:16.182Z,58.13
2019-01-20T09:22:44.782Z,70.50
2019-01-20T09:25:14.806Z,65.70
2019-01-20T09:27:43.479Z,63.40
2019-01-20T09:30:15.234Z,56.80
2019-01-20T09:32:43.925Z,60.80
2019-01-20T09:35:12.804Z,53.50
2019-01-20T09:37:41.450Z,60.40
2019-01-20T09:40:12.879Z,67.27
2019-01-20T09:42:41.548Z,67.43
2019-01-20T09:45:18.003Z,63.00
2019-01-20T09:47:46.776Z,62.07
2019-01-20T09:50:15.375Z,62.77
2019-01-20T09:52:44.022Z,54.87
2019-01-20T09:55:12.965Z,69.80
2019-01-20T09:57:41.653Z,70.07
2019-01-20T10:00:21.930Z,65.40
2019-01-20T10:02:50.661Z,58.27
2019-01-20T10:05:19.322Z,57.20
2019-01-20T10:07:47.952Z,67.87
2019-01-20T10:10:19.237Z,57.40
2019-01-20T10:12:47.920Z,54.60
2019-01-20T10:15:17.923Z,54.40
2019-01-20T10:17:46.556Z,57.13
2019-01-20T10:20:23.845Z,56.63
2019-01-20T10:22:52.475Z,50.17
2019-01-20T10:25:21.030Z,51.40
2019-01-20T10:27:49.657Z,61.17
2019-01-20T10:30:21.622Z,61.53
2019-01-20T10:32:50.188Z,59.80
2019-01-20T10:35:20.404Z,58.73
2019-01-20T10:37:49.501Z,61.47
2019-01-20T10:40:18.060Z,55.93
2019-01-20T10:42:46.725Z,58.13
2019-01-20T10:45:15.420Z,56.00
2019-01-20T10:47:44.045Z,53.37
2019-01-20T10:50:15.512Z,51.27
2019-01-20T10:52:44.099Z,49.97
2019-01-20T10:55:12.790Z,52.37
2019-01-20T10:57:41.468Z,54.97
2019-01-20T11:00:16.332Z,62.03
2019-01-20T11:02:44.949Z,54.70
2019-01-20T11:05:13.963Z,55.80
2019-01-20T11:07:44.496Z,50.37
2019-01-20T11:10:13.170Z,52.07
2019-01-20T11:12:41.797Z,54.50
2019-01-20T11:15:13.084Z,58.10
2019-01-20T11:17:41.678Z,51.90
2019-01-20T11:20:22.160Z,53.93
2019-01-20T11:22:50.781Z,54.70
2019-01-20T11:25:22.485Z,52.80
2019-01-20T11:27:51.118Z,49.93
2019-01-20T11:30:19.691Z,47.20
2019-01-20T11:32:48.292Z,58.33
2019-01-20T11:35:19.094Z,57.60
2019-01-20T11:37:47.840Z,46.83
2019-01-20T11:40:16.959Z,46.87
2019-01-20T11:42:45.627Z,48.37
2019-01-20T11:45:25.957Z,49.67
2019-01-20T11:47:54.627Z,51.53
2019-01-20T11:50:23.413Z,50.13
2019-01-20T11:52:52.058Z,47.40
2019-01-20T11:55:22.473Z,38.00
2019-01-20T11:57:51.722Z,45.83
2019-01-20T12:00:22.975Z,46.30
2019-01-20T12:02:51.736Z,40.50
2019-01-20T12:05:21.345Z,40.30
2019-01-20T12:07:51.287Z,34.50
2019-01-20T12:10:20.105Z,46.00
2019-01-20T12:12:56.346Z,43.03
2019-01-20T12:15:25.010Z,46.70
2019-01-20T12:17:53.640Z,42.40
2019-01-20T12:20:22.369Z,42.57
2019-01-20T12:22:51.034Z,46.30
2019-01-20T12:25:20.875Z,47.07
2019-01-20T12:27:49.486Z,35.13
2019-01-20T12:30:23.781Z,36.37
2019-01-20T12:32:52.382Z,36.00
2019-01-20T12:35:20.940Z,39.50
2019-01-20T12:37:49.635Z,44.20
2019-01-20T12:40:21.429Z,36.20
2019-01-20T12:42:52.729Z,39.30
2019-01-20T12:45:21.358Z,41.40
2019-01-20T12:47:49.968Z,37.40
2019-01-20T12:50:19.090Z,40.03
2019-01-20T12:52:47.861Z,42.73
2019-01-20T12:55:17.168Z,38.97
2019-01-20T12:57:45.834Z,43.53
2019-01-20T13:00:19.194Z,38.87
2019-01-20T13:02:48.034Z,36.87
2019-01-20T13:05:16.727Z,37.23
2019-01-20T13:07:45.390Z,41.20
2019-01-20T13:10:16.287Z,33.47
2019-01-20T13:12:46.050Z,39.03
2019-01-20T13:15:22.943Z,36.80
2019-01-20T13:17:51.927Z,32.00
2019-01-20T13:20:25.645Z,37.50
2019-01-20T13:22:54.334Z,40.20
2019-01-20T13:25:25.233Z,35.00
2019-01-20T13:27:53.900Z,37.90
2019-01-20T13:30:24.690Z,37.40
2019-01-20T13:32:53.318Z,39.33
2019-01-20T13:35:22.818Z,41.37
2019-01-20T13:38:00.495Z,42.30
2019-01-20T13:40:37.767Z,44.60
2019-01-20T13:43:06.440Z,57.77
2019-01-20T13:45:34.997Z,47.10
2019-01-20T13:48:03.739Z,52.17
2019-01-20T13:50:32.295Z,44.60
2019-01-20T13:53:01.007Z,47.50
2019-01-20T13:55:29.574Z,51.63
2019-01-20T13:57:58.199Z,49.43
2019-01-20T14:00:27.107Z,54.73
2019-01-20T14:02:55.841Z,52.47
2019-01-20T14:05:24.392Z,50.53
2019-01-20T14:07:53.061Z,46.07
2019-01-20T14:10:24.800Z,50.70
2019-01-20T14:12:53.396Z,44.63
2019-01-20T14:15:21.950Z,39.40
2019-01-20T14:17:50.585Z,40.90
2019-01-20T14:20:21.769Z,39.50
2019-01-20T14:22:50.492Z,44.40
2019-01-20T14:25:27.958Z,42.70
2019-01-20T14:27:56.660Z,40.90
2019-01-20T14:30:30.453Z,39.80
2019-01-20T14:32:59.055Z,42.77
2019-01-20T14:35:27.753Z,39.17
2019-01-20T14:37:56.429Z,46.47
2019-01-20T14:40:25.049Z,44.00
2019-01-20T14:42:54.038Z,41.57
2019-01-20T14:45:22.659Z,38.63
2019-01-20T14:47:51.382Z,46.57
2019-01-20T14:50:29.833Z,40.40
2019-01-20T14:52:58.544Z,47.77
2019-01-20T14:55:27.103Z,45.43
2019-01-20T14:57:55.776Z,40.00
2019-01-20T15:00:33.269Z,44.60
2019-01-20T15:03:01.974Z,44.33
2019-01-20T15:05:30.594Z,39.97
2019-01-20T15:07:59.331Z,41.90
2019-01-20T15:10:28.043Z,42.67
2019-01-20T15:12:56.774Z,40.97
2019-01-20T15:15:36.912Z,51.50
2019-01-20T15:18:06.685Z,45.67
2019-01-20T15:20:35.316Z,45.20
2019-01-20T15:23:04.249Z,44.90
2019-01-20T15:25:32.800Z,50.90
2019-01-20T15:28:01.449Z,51.60
2019-01-20T15:30:32.171Z,51.30
2019-01-20T15:33:02.484Z,57.90
2019-01-20T15:35:31.054Z,54.23
2019-01-20T15:37:59.716Z,52.63
2019-01-20T15:40:28.355Z,54.80
2019-01-20T15:42:57.627Z,47.37
2019-01-20T15:45:26.260Z,48.07
2019-01-20T15:47:54.931Z,53.23
2019-01-20T15:50:29.012Z,64.07
2019-01-20T15:52:57.691Z,52.70
2019-01-20T15:55:26.333Z,54.00
2019-01-20T15:57:55.342Z,51.40
2019-01-20T16:00:26.341Z,54.03
2019-01-20T16:02:55.069Z,55.63
2019-01-20T16:05:24.555Z,55.10
2019-01-20T16:07:53.351Z,56.07
2019-01-20T16:10:21.915Z,49.00
2019-01-20T16:12:51.085Z,59.00
2019-01-20T16:15:24.559Z,53.90
2019-01-20T16:17:54.220Z,51.23
2019-01-20T16:20:23.232Z,48.03
2019-01-20T16:22:51.966Z,56.27
2019-01-20T16:25:29.452Z,53.23
2019-01-20T16:27:58.104Z,58.70
2019-01-20T16:30:35.236Z,49.67
2019-01-20T16:33:03.903Z,50.90
2019-01-20T16:35:32.470Z,55.30
2019-01-20T16:38:02.058Z,51.50
2019-01-20T16:40:30.772Z,53.20
2019-01-20T16:42:59.397Z,49.40
2019-01-20T16:45:41.940Z,46.70
2019-01-20T16:48:07.593Z,56.60
2019-01-20T16:50:36.163Z,53.03
2019-01-20T16:53:05.432Z,48.87
2019-01-20T16:55:34.069Z,57.50
2019-01-20T16:58:02.695Z,48.23
2019-01-20T17:00:36.492Z,50.50
2019-01-20T17:03:05.303Z,51.80
2019-01-20T17:05:34.100Z,47.00
2019-01-20T17:08:02.889Z,53.43
2019-01-20T17:10:34.345Z,53.43
2019-01-20T17:13:03.108Z,48.87
2019-01-20T17:15:39.440Z,45.30
2019-01-20T17:18:06.985Z,47.20
2019-01-20T17:20:36.427Z,47.67
2019-01-20T17:23:05.705Z,55.73
2019-01-20T17:25:34.313Z,52.10
2019-01-20T17:28:03.990Z,48.43
2019-01-20T17:30:35.008Z,50.90
2019-01-20T17:33:05.139Z,46.30
2019-01-20T17:35:33.742Z,51.57
2019-01-20T17:38:02.549Z,47.13
2019-01-20T17:40:32.103Z,52.13
2019-01-20T17:43:00.837Z,51.40
2019-01-20T17:45:34.094Z,47.33
2019-01-20T17:48:02.736Z,50.53
2019-01-20T17:50:36.529Z,56.80
2019-01-20T17:53:06.865Z,44.20
2019-01-20T17:55:35.761Z,49.63
2019-01-20T17:58:05.124Z,53.30
2019-01-20T18:00:36.741Z,46.40
2019-01-20T18:03:07.020Z,51.10
2019-01-20T18:05:35.833Z,48.13
2019-01-20T18:08:04.486Z,57.53
2019-01-20T18:10:33.106Z,48.50
2019-01-20T18:13:01.760Z,49.23
2019-01-20T18:15:30.497Z,46.13
2019-01-20T18:17:59.201Z,57.33
2019-01-20T18:20:32.033Z,51.57
2019-01-20T18:23:00.767Z,49.43
2019-01-20T18:25:29.587Z,45.33
2019-01-20T18:27:58.474Z,43.30
2019-01-20T18:30:33.498Z,49.33
2019-01-20T18:33:02.308Z,51.77
2019-01-20T18:35:31.048Z,46.50
2019-01-20T18:37:59.877Z,53.13
2019-01-20T18:40:28.778Z,57.90
2019-01-20T18:42:57.599Z,54.23
2019-01-20T18:45:31.713Z,50.80
2019-01-20T18:48:00.307Z,53.30
2019-01-20T18:50:31.241Z,51.47
2019-01-20T18:53:00.309Z,46.97
2019-01-20T18:55:29.323Z,51.73
2019-01-20T18:57:58.269Z,52.60
2019-01-20T19:00:39.534Z,50.57
2019-01-20T19:03:08.509Z,57.83
2019-01-20T19:05:37.421Z,54.73
2019-01-20T19:08:06.385Z,55.87
2019-01-20T19:10:35.384Z,52.70
2019-01-20T19:13:04.423Z,50.50
2019-01-20T19:15:33.269Z,50.67
2019-01-20T19:18:01.979Z,55.70
2019-01-20T19:20:30.640Z,52.87
2019-01-20T19:23:00.395Z,53.37
2019-01-20T19:25:28.981Z,45.20
2019-01-20T19:27:57.756Z,52.37
2019-01-20T19:30:32.044Z,51.53
2019-01-20T19:33:00.840Z,54.37
2019-01-20T19:35:32.340Z,53.23
2019-01-20T19:38:01.158Z,51.00
2019-01-20T19:40:29.807Z,46.30
2019-01-20T19:42:58.477Z,50.07
2019-01-20T19:45:27.079Z,55.97
2019-01-20T19:47:55.781Z,53.40
2019-01-20T19:50:24.743Z,52.93
2019-01-20T19:52:53.494Z,56.10
2019-01-20T19:55:30.435Z,55.40
2019-01-20T19:57:59.380Z,62.77
2019-01-20T20:00:30.609Z,56.07
2019-01-20T20:03:01.769Z,56.90
2019-01-20T20:05:30.637Z,58.50
2019-01-20T20:07:59.514Z,54.47
2019-01-20T20:10:28.954Z,53.03
2019-01-20T20:12:58.197Z,53.50
2019-01-20T20:15:27.898Z,56.43
2019-01-20T20:17:56.573Z,59.47
2019-01-20T20:20:25.452Z,56.03
2019-01-20T20:22:54.292Z,57.93
2019-01-20T20:25:24.532Z,57.80
2019-01-20T20:27:53.764Z,54.97
2019-01-20T20:30:27.824Z,67.10
2019-01-20T20:32:56.569Z,53.77
2019-01-20T20:35:25.306Z,59.53
2019-01-20T20:37:53.921Z,60.50
2019-01-20T20:40:22.576Z,63.33
2019-01-20T20:42:51.329Z,58.93
2019-01-20T20:45:25.018Z,53.27
2019-01-20T20:47:53.690Z,56.07
2019-01-20T20:50:22.417Z,54.30
2019-01-20T20:52:51.138Z,56.17
2019-01-20T20:55:20.093Z,62.30
2019-01-20T20:57:49.043Z,50.93
2019-01-20T21:00:29.411Z,57.37
2019-01-20T21:02:59.524Z,51.20
2019-01-20T21:05:28.128Z,53.87
2019-01-20T21:07:57.155Z,53.20
2019-01-20T21:10:25.826Z,56.00
2019-01-20T21:12:54.543Z,59.13
2019-01-20T21:15:23.283Z,59.73
2019-01-20T21:17:52.035Z,58.50
2019-01-20T21:20:22.985Z,53.60
2019-01-20T21:22:52.781Z,53.03
2019-01-20T21:25:21.352Z,51.27
2019-01-20T21:27:49.982Z,53.10
2019-01-20T21:30:26.651Z,55.47
2019-01-20T21:32:55.292Z,56.43
2019-01-20T21:35:23.881Z,49.57
2019-01-20T21:37:55.388Z,55.10
2019-01-20T21:40:24.107Z,53.93
2019-01-20T21:42:55.218Z,53.40
2019-01-20T21:45:23.778Z,57.80
2019-01-20T21:47:52.531Z,53.30
2019-01-20T21:50:29.213Z,46.07
2019-01-20T21:52:58.073Z,45.77
2019-01-20T21:55:26.671Z,52.50
2019-01-20T21:57:55.428Z,54.53
2019-01-20T22:00:26.339Z,49.17
2019-01-20T22:02:55.059Z,46.70
2019-01-20T22:05:24.096Z,53.77
2019-01-20T22:07:52.866Z,50.30
2019-01-20T22:10:23.189Z,51.53
2019-01-20T22:12:51.849Z,52.30
2019-01-20T22:15:20.569Z,52.40
2019-01-20T22:17:49.785Z,55.77
2019-01-20T22:20:20.612Z,50.97
2019-01-20T22:22:49.504Z,49.10
2019-01-20T22:25:18.188Z,49.70
2019-01-20T22:27:46.917Z,53.37
2019-01-20T22:30:18.716Z,48.80
2019-01-20T22:32:47.334Z,49.13
2019-01-20T22:35:15.985Z,49.17
2019-01-20T22:37:44.683Z,50.00
2019-01-20T22:40:18.484Z,49.33
2019-01-20T22:42:47.262Z,45.63
2019-01-20T22:45:21.209Z,48.07
2019-01-20T22:47:49.832Z,52.17
2019-01-20T22:50:18.561Z,50.30
2019-01-20T22:52:47.266Z,49.07
2019-01-20T22:55:17.579Z,48.10
2019-01-20T22:57:46.217Z,48.07
2019-01-20T23:00:19.937Z,49.57
2019-01-20T23:02:49.145Z,48.80
2019-01-20T23:05:17.713Z,51.70
2019-01-20T23:07:46.328Z,52.00
2019-01-20T23:10:14.971Z,47.70
2019-01-20T23:12:46.420Z,57.77
2019-01-20T23:15:15.042Z,48.73
2019-01-20T23:17:43.723Z,46.63
2019-01-20T23:20:15.454Z,46.00
2019-01-20T23:22:44.071Z,49.57
2019-01-20T23:25:12.697Z,48.30
2019-01-20T23:27:41.419Z,50.30
2019-01-20T23:30:15.189Z,50.90
2019-01-20T23:32:43.786Z,44.57
2019-01-20T23:35:12.426Z,43.57
2019-01-20T23:37:41.104Z,45.47
2019-01-20T23:40:12.401Z,56.93
2019-01-20T23:42:41.056Z,45.27
2019-01-20T23:45:11.442Z,41.43
2019-01-20T23:47:40.076Z,44.60
2019-01-20T23:50:11.476Z,51.60
2019-01-20T23:52:40.240Z,40.77
2019-01-20T23:55:11.802Z,43.00
2019-01-20T23:57:40.483Z,44.57
